createdAt,value
2018-11-01T05:45:05.658Z,6.80
2018-11-01T05:47:41.064Z,6.90
2018-11-01T05:50:16.195Z,6.90
2018-11-01T05:52:51.112Z,7.20
2018-11-01T05:55:26.192Z,7.20
2018-11-01T05:58:01.967Z,6.90
2018-11-01T06:00:38.446Z,6.80
2018-11-01T06:03:12.628Z,6.60
2018-11-01T06:05:48.475Z,6.60
2018-11-01T06:08:25.619Z,6.60
2018-11-01T06:11:04.163Z,6.60
2018-11-01T06:13:38.245Z,6.90
2018-11-01T06:16:16.682Z,6.70
2018-11-01T06:18:52.267Z,6.90
2018-11-01T06:21:34.126Z,7.10
2018-11-01T06:24:09.184Z,7.30
2018-11-01T06:26:43.334Z,7.40
2018-11-01T06:29:17.393Z,7.50
2018-11-01T06:31:51.461Z,7.20
2018-11-01T06:34:26.312Z,7.40
2018-11-01T06:37:00.496Z,7.40
2018-11-01T06:39:35.280Z,7.10
2018-11-01T06:42:09.357Z,7.00
2018-11-01T06:44:44.217Z,6.60
2018-11-01T06:47:18.350Z,6.60
2018-11-01T06:49:52.524Z,6.80
2018-11-01T06:52:27.370Z,6.70
2018-11-01T06:55:01.437Z,6.70
2018-11-01T06:57:35.437Z,6.60
2018-11-01T07:00:14.074Z,7.00
2018-11-01T07:29:51.593Z,8.50
2018-11-01T07:32:44.433Z,8.70
2018-11-01T07:38:13.050Z,8.80
2018-11-01T07:40:57.919Z,9.00
2018-11-01T07:43:45.284Z,9.10
2018-11-01T07:46:21.683Z,9.10
2018-11-01T07:48:57.653Z,9.00
2018-11-01T07:51:39.081Z,9.10
2018-11-01T07:54:21.067Z,9.20
2018-11-01T07:57:07.045Z,9.30
2018-11-01T07:59:49.826Z,9.40
2018-11-01T08:02:31.458Z,9.40
2018-11-01T08:05:12.885Z,9.50
2018-11-01T08:07:49.474Z,9.60
2018-11-01T08:10:23.598Z,9.60
2018-11-01T08:13:00.193Z,9.40
2018-11-01T08:15:39.132Z,9.00
2018-11-01T08:18:27.214Z,9.40
2018-11-01T08:21:05.238Z,9.40
2018-11-01T08:23:46.444Z,9.60
2018-11-01T08:26:30.881Z,9.60
2018-11-01T08:29:11.928Z,9.60
2018-11-01T08:31:52.111Z,9.60
2018-11-01T08:34:34.769Z,9.80
2018-11-01T08:37:16.348Z,9.90
2018-11-01T08:39:54.921Z,9.80
2018-11-01T08:42:38.884Z,9.80
2018-11-01T08:45:22.420Z,9.60
2018-11-01T08:47:59.597Z,9.60
2018-11-01T08:50:38.210Z,9.30
2018-11-01T08:53:18.518Z,9.00
2018-11-01T08:56:01.949Z,9.40
2018-11-01T08:58:43.526Z,9.30
2018-11-01T09:01:26.128Z,9.20
2018-11-01T09:04:04.975Z,9.30
